createdAt,value
2019-04-21T00:00:39.852Z,0.00
2019-04-21T00:01:44.147Z,0.00
2019-04-21T00:03:39.838Z,0.00
2019-04-21T00:04:48.156Z,0.00
2019-04-21T00:07:03.274Z,0.00
2019-04-21T00:07:45.036Z,0.00
2019-04-21T00:09:40.041Z,0.00
2019-04-21T00:10:40.606Z,0.00
2019-04-21T00:12:29.856Z,0.00
2019-04-21T00:13:28.098Z,0.00
2019-04-21T00:15:16.086Z,0.00
2019-04-21T00:16:10.173Z,0.00
2019-04-21T00:18:02.467Z,0.00
2019-04-21T00:19:07.121Z,0.00
2019-04-21T00:20:55.206Z,0.00
2019-04-21T00:22:01.581Z,0.00
2019-04-21T00:24:00.391Z,0.00
2019-04-21T00:25:04.304Z,0.00
2019-04-21T00:26:58.992Z,0.00
2019-04-21T00:27:50.368Z,0.00
2019-04-21T00:29:49.704Z,0.00
2019-04-21T00:30:50.891Z,0.00
2019-04-21T00:32:36.885Z,0.00
2019-04-21T00:33:28.848Z,0.00
2019-04-21T00:35:22.227Z,0.00
2019-04-21T00:36:25.269Z,0.00
2019-04-21T00:38:34.584Z,0.00
2019-04-21T00:39:36.404Z,0.00
2019-04-21T00:41:25.995Z,0.00
2019-04-21T00:42:24.153Z,0.00
2019-04-21T00:44:08.733Z,0.00
2019-04-21T00:45:12.053Z,0.00
2019-04-21T00:47:01.829Z,0.00
2019-04-21T00:48:11.380Z,0.00
2019-04-21T00:50:05.234Z,0.00
2019-04-21T00:51:16.299Z,0.00
2019-04-21T00:54:04.014Z,0.00
2019-04-21T00:55:57.628Z,0.00
2019-04-21T00:56:56.719Z,0.00
2019-04-21T00:58:49.862Z,0.00
2019-04-21T00:59:46.365Z,0.00
2019-04-21T01:01:31.421Z,0.00
2019-04-21T01:02:41.631Z,0.00
2019-04-21T01:04:30.676Z,0.00
2019-04-21T01:05:28.286Z,0.00
2019-04-21T01:07:19.441Z,0.00
2019-04-21T01:08:19.863Z,0.00
2019-04-21T01:10:06.681Z,0.00
2019-04-21T01:11:17.865Z,0.00
2019-04-21T01:13:09.544Z,0.00
2019-04-21T01:14:16.631Z,0.00
2019-04-21T01:16:03.342Z,0.00
2019-04-21T01:17:06.816Z,0.00
2019-04-21T01:18:49.356Z,0.00
2019-04-21T01:19:49.137Z,0.00
2019-04-21T01:21:26.009Z,0.00
2019-04-21T01:22:26.067Z,0.00
2019-04-21T01:24:25.919Z,0.00
2019-04-21T01:25:28.211Z,0.00
2019-04-21T01:27:22.689Z,0.00
2019-04-21T01:28:29.067Z,0.00
2019-04-21T01:30:32.583Z,0.00
2019-04-21T01:31:23.785Z,0.00
2019-04-21T01:33:21.657Z,0.00
2019-04-21T01:34:23.304Z,0.00
2019-04-21T01:36:08.416Z,0.00
2019-04-21T01:37:03.968Z,0.00
2019-04-21T01:39:08.017Z,0.00
2019-04-21T01:40:08.452Z,0.00
2019-04-21T01:42:00.058Z,0.00
2019-04-21T01:42:58.024Z,0.00
2019-04-21T01:44:56.804Z,0.00
2019-04-21T01:45:49.181Z,0.00
2019-04-21T01:47:44.689Z,0.00
2019-04-21T01:48:39.134Z,0.00
2019-04-21T01:50:34.514Z,0.00
2019-04-21T01:51:36.956Z,0.00
2019-04-21T01:53:30.731Z,0.00
2019-04-21T01:54:33.258Z,0.00
2019-04-21T01:56:24.103Z,0.00
2019-04-21T01:57:17.619Z,0.00
2019-04-21T01:59:04.939Z,0.00
2019-04-21T02:00:06.257Z,0.00
2019-04-21T02:02:15.983Z,0.00
2019-04-21T02:03:28.520Z,0.00
2019-04-21T02:05:11.863Z,0.00
2019-04-21T02:06:07.695Z,0.00
2019-04-21T02:07:55.216Z,0.00
2019-04-21T02:08:54.987Z,0.00
2019-04-21T02:10:54.650Z,0.00
2019-04-21T02:11:50.858Z,0.00
2019-04-21T02:13:46.853Z,0.00
2019-04-21T02:14:47.382Z,0.00
2019-04-21T02:16:39.199Z,0.00
2019-04-21T02:17:34.255Z,0.00
2019-04-21T02:19:23.603Z,0.00
2019-04-21T02:20:18.235Z,0.00
2019-04-21T02:22:19.198Z,0.00
2019-04-21T02:23:34.664Z,0.00
2019-04-21T02:25:15.130Z,0.00
2019-04-21T02:26:21.154Z,0.00
2019-04-21T02:28:13.401Z,0.00
2019-04-21T02:29:08.458Z,0.00
2019-04-21T02:31:18.656Z,0.00
2019-04-21T02:32:10.553Z,0.00
2019-04-21T02:34:06.667Z,0.00
2019-04-21T02:37:07.429Z,0.00
2019-04-21T02:39:56.661Z,0.00
2019-04-21T02:42:46.617Z,0.00
2019-04-21T02:43:46.200Z,0.00
2019-04-21T02:46:37.969Z,0.00
2019-04-21T02:48:32.927Z,0.00
2019-04-21T02:49:35.370Z,0.00
2019-04-21T02:51:28.174Z,0.00
2019-04-21T02:55:06.308Z,0.00
2019-04-21T02:57:09.167Z,0.00
2019-04-21T02:58:06.140Z,0.00
2019-04-21T03:01:07.531Z,0.00
2019-04-21T03:03:55.025Z,0.00
2019-04-21T03:05:58.790Z,0.00
2019-04-21T03:06:59.397Z,0.00
2019-04-21T03:08:49.671Z,0.00
2019-04-21T03:09:36.578Z,0.00
2019-04-21T03:11:28.954Z,0.00
2019-04-21T03:14:40.848Z,0.00
2019-04-21T03:15:29.245Z,0.00
2019-04-21T03:17:22.306Z,0.00
2019-04-21T03:23:09.380Z,0.00
2019-04-21T03:26:07.297Z,0.00
2019-04-21T03:27:12.615Z,0.00
2019-04-21T03:29:57.093Z,0.00
2019-04-21T03:38:39.087Z,0.00
2019-04-21T03:40:18.712Z,0.00
2019-04-21T03:41:18.898Z,0.00
2019-04-21T03:43:20.288Z,0.00
2019-04-21T03:44:14.420Z,0.00
2019-04-21T03:46:12.064Z,0.00
2019-04-21T03:51:59.206Z,4.00
2019-04-21T03:53:09.672Z,4.00
2019-04-21T03:55:05.554Z,8.00
2019-04-21T03:57:57.362Z,4.00
2019-04-21T04:01:32.414Z,12.00
2019-04-21T04:03:42.202Z,20.00
2019-04-21T04:04:27.933Z,24.00
2019-04-21T04:06:20.509Z,28.00
2019-04-21T04:07:31.202Z,32.00
2019-04-21T04:09:18.632Z,44.00
2019-04-21T04:10:13.904Z,48.00
2019-04-21T04:12:06.587Z,60.00
2019-04-21T04:13:05.892Z,72.00
2019-04-21T04:15:03.053Z,88.00
2019-04-21T04:16:05.965Z,100.00
2019-04-21T04:17:49.809Z,120.00
2019-04-21T04:18:53.152Z,132.00
2019-04-21T04:21:03.070Z,160.00
2019-04-21T04:21:56.381Z,176.00
2019-04-21T04:23:47.371Z,212.00
2019-04-21T04:24:39.255Z,228.00
2019-04-21T04:26:33.592Z,268.00
2019-04-21T04:27:47.019Z,288.00
2019-04-21T04:30:29.642Z,356.00
2019-04-21T04:32:28.415Z,404.00
2019-04-21T04:33:34.405Z,432.00
2019-04-21T04:35:34.004Z,488.00
2019-04-21T04:36:24.355Z,516.00
2019-04-21T04:38:07.192Z,576.00
2019-04-21T04:39:22.074Z,612.00
2019-04-21T04:41:01.046Z,676.00
2019-04-21T04:42:04.427Z,708.00
2019-04-21T04:43:57.322Z,780.00
2019-04-21T04:47:47.320Z,932.00
2019-04-21T04:49:43.258Z,1008.00
2019-04-21T04:50:43.390Z,1048.00
2019-04-21T04:52:32.662Z,1124.00
2019-04-21T04:53:40.126Z,1168.00
2019-04-21T04:55:27.073Z,1244.00
2019-04-21T04:56:18.295Z,1284.00
2019-04-21T04:58:42.722Z,1368.00
2019-04-21T05:04:06.364Z,1608.00
2019-04-21T05:07:11.504Z,1736.00
2019-04-21T05:08:01.630Z,1780.00
2019-04-21T05:09:47.223Z,1868.00
2019-04-21T05:10:57.489Z,1908.00
2019-04-21T05:12:38.536Z,1984.00
2019-04-21T05:13:51.156Z,2028.00
2019-04-21T05:15:23.712Z,2112.00
2019-04-21T05:16:43.140Z,2152.00
2019-04-21T05:18:30.729Z,2232.00
2019-04-21T05:19:24.488Z,2268.00
2019-04-21T05:21:23.229Z,2348.00
2019-04-21T05:23:59.839Z,2472.00
2019-04-21T05:24:58.405Z,2512.00
2019-04-21T05:26:52.893Z,2592.00
2019-04-21T05:27:54.049Z,2636.00
2019-04-21T05:29:56.772Z,2712.00
2019-04-21T05:31:00.983Z,2748.00
2019-04-21T05:32:45.099Z,2832.00
2019-04-21T05:33:47.815Z,2872.00
2019-04-21T05:35:37.306Z,2956.00
2019-04-21T05:36:37.698Z,2996.00
2019-04-21T05:38:27.274Z,3072.00
2019-04-21T05:39:24.783Z,3116.00
2019-04-21T05:41:11.072Z,3192.00
2019-04-21T05:42:08.943Z,3236.00
2019-04-21T05:44:19.338Z,3320.00
2019-04-21T05:45:22.846Z,3368.00
2019-04-21T05:47:26.553Z,3464.00
2019-04-21T05:48:18.983Z,3512.00
2019-04-21T05:49:59.518Z,3628.00
2019-04-21T05:50:59.244Z,3696.00
2019-04-21T05:52:47.647Z,3832.00
2019-04-21T05:53:56.104Z,3916.00
2019-04-21T05:55:51.756Z,4084.00
2019-04-21T05:56:48.701Z,4184.00
2019-04-21T05:58:40.877Z,4400.00
2019-04-21T06:02:56.090Z,5040.00
2019-04-21T06:04:41.602Z,5496.00
2019-04-21T06:05:37.827Z,5792.00
2019-04-21T06:07:23.118Z,6492.00
2019-04-21T06:08:19.986Z,6900.00
2019-04-21T06:10:12.641Z,7656.00
2019-04-21T06:13:13.427Z,8536.00
2019-04-21T06:14:10.829Z,8728.00
2019-04-21T06:16:03.984Z,9192.00
2019-04-21T06:17:01.626Z,9624.00
2019-04-21T06:18:57.989Z,11512.00
2019-04-21T06:19:58.988Z,12240.00
2019-04-21T06:21:44.779Z,12716.00
2019-04-21T06:24:42.212Z,13104.00
2019-04-21T06:25:51.814Z,13252.00
2019-04-21T06:27:44.325Z,13500.00
2019-04-21T06:28:33.735Z,13660.00
2019-04-21T06:30:28.508Z,13924.00
2019-04-21T06:33:20.257Z,14336.00
2019-04-21T06:34:16.720Z,14476.00
2019-04-21T06:37:34.838Z,15040.00
2019-04-21T06:40:17.737Z,15424.00
2019-04-21T06:42:01.320Z,15584.00
2019-04-21T06:43:16.323Z,15680.00
2019-04-21T06:44:53.776Z,16064.00
2019-04-21T06:46:10.959Z,16256.00
2019-04-21T06:47:53.983Z,16576.00
2019-04-21T06:48:49.344Z,16768.00
2019-04-21T06:50:39.530Z,17120.00
2019-04-21T06:51:38.465Z,17472.00
2019-04-21T06:53:42.093Z,18272.00
2019-04-21T06:54:35.233Z,18848.00
2019-04-21T06:56:32.126Z,19936.00
2019-04-21T06:57:23.182Z,20640.00
2019-04-21T06:59:09.663Z,22528.00
2019-04-21T07:00:13.486Z,23904.00
2019-04-21T07:02:30.758Z,26976.00
2019-04-21T07:03:17.123Z,28736.00
2019-04-21T07:05:07.842Z,31040.00
2019-04-21T07:06:06.999Z,33024.00
2019-04-21T07:08:07.724Z,38080.00
2019-04-21T07:09:06.371Z,42080.00
2019-04-21T07:10:46.325Z,51808.00
2019-04-21T07:11:43.974Z,59776.00
2019-04-21T07:13:41.583Z,64704.00
2019-04-21T07:16:38.626Z,58816.00
2019-04-21T07:17:37.629Z,53984.00
2019-04-21T07:19:40.973Z,48096.00
2019-04-21T07:20:21.752Z,47168.00
2019-04-21T07:22:24.731Z,41280.00
2019-04-21T07:23:28.500Z,38560.00
2019-04-21T07:25:18.641Z,36608.00
2019-04-21T07:26:16.018Z,35488.00
2019-04-21T07:28:07.440Z,35200.00
2019-04-21T07:29:07.919Z,35200.00
2019-04-21T07:31:03.767Z,35008.00
2019-04-21T07:34:51.776Z,36416.00
2019-04-21T07:36:52.628Z,37664.00
2019-04-21T07:37:48.101Z,37408.00
2019-04-21T07:39:35.760Z,38144.00
2019-04-21T07:40:36.530Z,38016.00
2019-04-21T07:42:24.063Z,37824.00
2019-04-21T07:43:25.929Z,37792.00
2019-04-21T07:45:17.986Z,38592.00
2019-04-21T07:46:17.199Z,39136.00
2019-04-21T07:48:18.941Z,39488.00
2019-04-21T07:49:15.537Z,40032.00
2019-04-21T07:51:11.128Z,41280.00
2019-04-21T07:52:11.347Z,42304.00
2019-04-21T07:54:26.903Z,43904.00
2019-04-21T07:55:05.938Z,44192.00
2019-04-21T07:56:40.623Z,44640.00
2019-04-21T07:57:52.655Z,43680.00
2019-04-21T08:00:01.204Z,42624.00
2019-04-21T08:00:49.541Z,42112.00
2019-04-21T08:02:40.649Z,41504.00
2019-04-21T08:03:39.903Z,41824.00
2019-04-21T08:05:35.539Z,41504.00
2019-04-21T08:06:43.702Z,41280.00
2019-04-21T08:08:26.853Z,41312.00
2019-04-21T08:09:29.459Z,41344.00
2019-04-21T08:11:24.342Z,41632.00
2019-04-21T08:12:14.498Z,41440.00
2019-04-21T08:14:16.995Z,40704.00
2019-04-21T08:15:21.755Z,40448.00
2019-04-21T08:17:09.828Z,41120.00
2019-04-21T08:18:07.074Z,41728.00
2019-04-21T08:19:53.712Z,42496.00
2019-04-21T08:21:02.465Z,42752.00
2019-04-21T08:23:02.535Z,73312.00
2019-04-21T08:23:48.583Z,108576.00
2019-04-21T08:25:56.290Z,84512.00
2019-04-21T08:27:06.283Z,82816.00
2019-04-21T08:28:42.705Z,83648.00
2019-04-21T08:29:40.826Z,85312.00
2019-04-21T08:31:46.396Z,77472.00
2019-04-21T08:32:49.637Z,72896.00
2019-04-21T08:34:28.363Z,78112.00
2019-04-21T08:37:18.251Z,76704.00
2019-04-21T08:38:20.354Z,71232.00
2019-04-21T08:40:15.766Z,76224.00
2019-04-21T08:41:14.945Z,76096.00
2019-04-21T08:42:59.982Z,74880.00
2019-04-21T08:44:02.318Z,75840.00
2019-04-21T08:46:13.010Z,74624.00
2019-04-21T08:46:58.904Z,74272.00
2019-04-21T08:49:06.244Z,76096.00
2019-04-21T08:49:47.521Z,78272.00
2019-04-21T08:51:50.702Z,74976.00
2019-04-21T08:52:49.270Z,73248.00
2019-04-21T08:54:36.771Z,73664.00
2019-04-21T08:55:42.966Z,74368.00
2019-04-21T08:57:39.639Z,74656.00
2019-04-21T08:58:39.500Z,75008.00
2019-04-21T09:00:29.246Z,74848.00
2019-04-21T09:01:23.799Z,75808.00
2019-04-21T09:03:19.554Z,70464.00
2019-04-21T09:04:13.281Z,64992.00
2019-04-21T09:06:17.567Z,71008.00
2019-04-21T09:09:08.187Z,66432.00
2019-04-21T09:10:02.829Z,62208.00
2019-04-21T09:11:54.889Z,63584.00
2019-04-21T09:12:54.751Z,60704.00
2019-04-21T09:14:51.251Z,68064.00
2019-04-21T09:15:41.916Z,40192.00
2019-04-21T09:17:32.904Z,6952.00
2019-04-21T09:18:33.734Z,6720.00
2019-04-21T09:20:43.983Z,6692.00
2019-04-21T09:21:31.337Z,6680.00
2019-04-21T09:23:26.113Z,6688.00
2019-04-21T09:24:31.539Z,6672.00
2019-04-21T09:26:18.602Z,6620.00
2019-04-21T09:27:15.814Z,6608.00
2019-04-21T09:29:04.369Z,6580.00
2019-04-21T09:30:00.312Z,6536.00
2019-04-21T09:31:48.489Z,6472.00
2019-04-21T09:32:49.476Z,6464.00
2019-04-21T09:34:43.815Z,6420.00
2019-04-21T09:35:47.466Z,6400.00
2019-04-21T09:37:45.754Z,6348.00
2019-04-21T09:38:38.306Z,6312.00
2019-04-21T09:40:32.683Z,6292.00
2019-04-21T09:41:27.802Z,6300.00
2019-04-21T09:43:31.724Z,6320.00
2019-04-21T09:44:25.443Z,6312.00
2019-04-21T09:46:12.248Z,6308.00
2019-04-21T09:47:13.445Z,6284.00
2019-04-21T09:49:08.593Z,6252.00
2019-04-21T09:50:06.611Z,6232.00
2019-04-21T09:51:58.379Z,6188.00
2019-04-21T09:53:05.415Z,6164.00
2019-04-21T09:55:00.881Z,6116.00
2019-04-21T09:55:58.226Z,6108.00
2019-04-21T09:57:50.053Z,6112.00
2019-04-21T09:58:49.765Z,6044.00
2019-04-21T10:00:46.146Z,5936.00
2019-04-21T10:01:50.084Z,5956.00
2019-04-21T10:03:37.079Z,5976.00
2019-04-21T10:04:31.131Z,5976.00
2019-04-21T10:06:23.833Z,5944.00
2019-04-21T10:07:31.057Z,5936.00
2019-04-21T10:09:19.737Z,5864.00
2019-04-21T10:10:17.252Z,5812.00
2019-04-21T10:12:09.910Z,5808.00
2019-04-21T10:13:10.632Z,5836.00
2019-04-21T10:15:04.203Z,5772.00
2019-04-21T10:16:03.161Z,5716.00
2019-04-21T10:17:56.160Z,5612.00
2019-04-21T10:18:56.777Z,5540.00
2019-04-21T10:20:49.221Z,5568.00
2019-04-21T10:21:50.141Z,5576.00
2019-04-21T10:23:42.132Z,5572.00
2019-04-21T10:24:42.475Z,5556.00
2019-04-21T10:26:35.604Z,5432.00
2019-04-21T10:27:35.234Z,5388.00
2019-04-21T10:29:30.923Z,5324.00
2019-04-21T10:30:28.730Z,5272.00
2019-04-21T10:32:23.447Z,5216.00
2019-04-21T10:33:22.044Z,5200.00
2019-04-21T10:35:15.010Z,5208.00
2019-04-21T10:36:15.187Z,5220.00
2019-04-21T10:38:20.494Z,5224.00
2019-04-21T10:39:07.494Z,5212.00
2019-04-21T10:41:01.368Z,5192.00
2019-04-21T10:42:01.507Z,5204.00
2019-04-21T10:43:53.582Z,5172.00
2019-04-21T10:44:54.744Z,5156.00
2019-04-21T10:46:48.400Z,5088.00
2019-04-21T10:47:47.194Z,5088.00
2019-04-21T10:49:40.282Z,5024.00
2019-04-21T10:50:41.068Z,4988.00
2019-04-21T10:52:34.767Z,4928.00
2019-04-21T10:53:32.819Z,4920.00
2019-04-21T10:55:41.487Z,4896.00
2019-04-21T10:56:31.491Z,4868.00
2019-04-21T10:58:20.291Z,4788.00
2019-04-21T10:59:20.332Z,4744.00
2019-04-21T11:01:12.747Z,4672.00
2019-04-21T11:02:12.791Z,4652.00
2019-04-21T11:04:07.555Z,4636.00
2019-04-21T11:05:05.108Z,4616.00
2019-04-21T11:07:06.783Z,4556.00
2019-04-21T11:08:09.998Z,4520.00
2019-04-21T11:09:51.844Z,4468.00
2019-04-21T11:10:51.945Z,4436.00
2019-04-21T11:12:44.734Z,4400.00
2019-04-21T11:13:44.388Z,4376.00
2019-04-21T11:15:37.327Z,4348.00
2019-04-21T11:16:37.373Z,4360.00
2019-04-21T11:18:31.517Z,4368.00
2019-04-21T11:19:30.783Z,4356.00
2019-04-21T11:21:24.918Z,4332.00
2019-04-21T11:22:25.101Z,4328.00
2019-04-21T11:24:18.155Z,4340.00
2019-04-21T11:25:17.859Z,4336.00
2019-04-21T11:27:10.952Z,4308.00
2019-04-21T11:28:11.171Z,4276.00
2019-04-21T11:30:03.281Z,4212.00
2019-04-21T11:31:04.729Z,4200.00
2019-04-21T11:32:57.163Z,4180.00
2019-04-21T11:33:57.449Z,4192.00
2019-04-21T11:35:49.401Z,4236.00
2019-04-21T11:36:50.225Z,4244.00
2019-04-21T11:38:57.121Z,4256.00
2019-04-21T11:39:51.935Z,4244.00
2019-04-21T11:41:36.278Z,4192.00
2019-04-21T11:42:37.703Z,4172.00
2019-04-21T11:44:29.243Z,4116.00
2019-04-21T11:45:30.578Z,4076.00
2019-04-21T11:49:04.158Z,4004.00
2019-04-21T11:50:03.402Z,3996.00
2019-04-21T11:51:56.510Z,3984.00
2019-04-21T11:52:56.881Z,3996.00
2019-04-21T11:54:49.347Z,4012.00
2019-04-21T11:55:51.780Z,4020.00
2019-04-21T11:57:46.348Z,4028.00
2019-04-21T11:58:43.812Z,4020.00
2019-04-21T12:00:35.846Z,3992.00
2019-04-21T12:01:35.965Z,3972.00
2019-04-21T12:03:29.504Z,3900.00
2019-04-21T12:04:29.542Z,3880.00
2019-04-21T12:06:30.855Z,3832.00
2019-04-21T12:07:22.855Z,3800.00
2019-04-21T12:09:14.864Z,3756.00
2019-04-21T12:10:23.758Z,3724.00
2019-04-21T12:12:09.780Z,3656.00
2019-04-21T12:13:08.334Z,3608.00
2019-04-21T12:15:01.952Z,3532.00
2019-04-21T12:16:03.128Z,3512.00
2019-04-21T12:17:56.346Z,3448.00
2019-04-21T12:18:54.658Z,3440.00
2019-04-21T12:20:47.397Z,3424.00
2019-04-21T12:22:00.397Z,3392.00
2019-04-21T12:23:42.609Z,3360.00
2019-04-21T12:24:40.634Z,3332.00
2019-04-21T12:26:34.230Z,3304.00
2019-04-21T12:29:30.689Z,3320.00
2019-04-21T12:30:33.611Z,3348.00
2019-04-21T12:32:24.152Z,3408.00
2019-04-21T12:33:24.359Z,3408.00
2019-04-21T12:35:17.660Z,3360.00
2019-04-21T12:36:17.860Z,3312.00
2019-04-21T12:38:10.947Z,3240.00
2019-04-21T12:39:10.711Z,3176.00
2019-04-21T12:41:04.512Z,3076.00
2019-04-21T12:42:04.619Z,3028.00
2019-04-21T12:43:56.957Z,2952.00
2019-04-21T12:44:57.252Z,2944.00
2019-04-21T12:46:49.821Z,2944.00
2019-04-21T12:47:50.693Z,2968.00
2019-04-21T12:49:43.699Z,3012.00
2019-04-21T12:50:43.722Z,3020.00
2019-04-21T12:52:35.706Z,2992.00
2019-04-21T12:53:35.902Z,2964.00
2019-04-21T12:55:31.549Z,2908.00
2019-04-21T12:56:29.482Z,2872.00
2019-04-21T12:58:21.621Z,2880.00
2019-04-21T12:59:21.614Z,2888.00
2019-04-21T13:01:14.721Z,2884.00
2019-04-21T13:02:15.974Z,2896.00
2019-04-21T13:04:08.168Z,2900.00
2019-04-21T13:05:07.745Z,2896.00
2019-04-21T13:07:01.474Z,2900.00
2019-04-21T13:08:01.622Z,2896.00
2019-04-21T13:09:54.613Z,2876.00
2019-04-21T13:10:53.996Z,2864.00
2019-04-21T13:12:48.005Z,2876.00
2019-04-21T13:13:48.095Z,2888.00
2019-04-21T13:15:39.978Z,2880.00
2019-04-21T13:16:41.174Z,2872.00
2019-04-21T13:18:33.287Z,2868.00
2019-04-21T13:19:33.518Z,2860.00
2019-04-21T13:21:26.096Z,2844.00
2019-04-21T13:22:26.135Z,2832.00
2019-04-21T13:24:19.966Z,2812.00
2019-04-21T13:25:20.077Z,2796.00
2019-04-21T13:27:12.752Z,2784.00
2019-04-21T13:28:12.563Z,2788.00
2019-04-21T13:30:06.330Z,2784.00
2019-04-21T13:31:06.482Z,2788.00
2019-04-21T13:32:58.930Z,2780.00
2019-04-21T13:33:59.833Z,2780.00
2019-04-21T13:35:53.015Z,2764.00
2019-04-21T13:36:51.773Z,2768.00
2019-04-21T13:39:09.633Z,2760.00
2019-04-21T13:40:09.993Z,2740.00
2019-04-21T13:41:49.414Z,2744.00
2019-04-21T13:42:42.640Z,2760.00
2019-04-21T13:44:30.944Z,2764.00
2019-04-21T13:45:32.055Z,2760.00
2019-04-21T13:47:24.803Z,2764.00
2019-04-21T13:48:24.399Z,2772.00
2019-04-21T13:50:17.348Z,2772.00
2019-04-21T13:51:17.538Z,2760.00
2019-04-21T13:53:09.786Z,2748.00
2019-04-21T13:54:09.823Z,2740.00
2019-04-21T13:56:02.860Z,2736.00
2019-04-21T13:57:02.924Z,2724.00
2019-04-21T13:58:56.016Z,2716.00
2019-04-21T13:59:57.106Z,2712.00
2019-04-21T14:01:49.789Z,2692.00
2019-04-21T14:02:49.086Z,2680.00
2019-04-21T14:04:43.223Z,2668.00
2019-04-21T14:05:42.457Z,2668.00
2019-04-21T14:07:36.348Z,2664.00
2019-04-21T14:08:35.156Z,2664.00
2019-04-21T14:10:29.250Z,2664.00
2019-04-21T14:11:29.275Z,2668.00
2019-04-21T14:13:22.306Z,2664.00
2019-04-21T14:14:21.295Z,2664.00
2019-04-21T14:16:14.312Z,2652.00
2019-04-21T14:17:15.068Z,2648.00
2019-04-21T14:19:07.683Z,2620.00
2019-04-21T14:20:07.430Z,2608.00
2019-04-21T14:22:01.172Z,2600.00
2019-04-21T14:23:13.234Z,2600.00
2019-04-21T14:24:54.118Z,2596.00
2019-04-21T14:25:53.551Z,2592.00
2019-04-21T14:27:49.067Z,2584.00
2019-04-21T14:28:47.208Z,2580.00
2019-04-21T14:30:40.718Z,2572.00
2019-04-21T14:31:40.225Z,2564.00
2019-04-21T14:33:33.847Z,2556.00
2019-04-21T14:34:34.012Z,2548.00
2019-04-21T14:36:26.557Z,2528.00
2019-04-21T14:37:26.558Z,2520.00
2019-04-21T14:39:18.797Z,2508.00
2019-04-21T14:40:23.996Z,2500.00
2019-04-21T14:42:11.997Z,2496.00
2019-04-21T14:43:12.047Z,2492.00
2019-04-21T14:45:05.071Z,2496.00
2019-04-21T14:46:06.365Z,2492.00
2019-04-21T14:47:58.961Z,2484.00
2019-04-21T14:48:59.254Z,2480.00
2019-04-21T14:50:52.379Z,2476.00
2019-04-21T14:51:51.140Z,2468.00
2019-04-21T14:53:44.160Z,2460.00
2019-04-21T14:54:44.640Z,2452.00
2019-04-21T14:56:37.458Z,2444.00
2019-04-21T14:57:37.261Z,2444.00
2019-04-21T14:59:31.095Z,2440.00
2019-04-21T15:00:31.268Z,2432.00
2019-04-21T15:02:23.317Z,2432.00
2019-04-21T15:03:23.688Z,2420.00
2019-04-21T15:05:17.496Z,2420.00
2019-04-21T15:06:16.438Z,2412.00
2019-04-21T15:08:09.439Z,2408.00
2019-04-21T15:09:09.520Z,2400.00
2019-04-21T15:11:03.236Z,2396.00
2019-04-21T15:12:02.599Z,2392.00
2019-04-21T15:13:55.957Z,2384.00
2019-04-21T15:14:56.000Z,2376.00
2019-04-21T15:16:49.036Z,2376.00
2019-04-21T15:17:49.445Z,2372.00
2019-04-21T15:19:42.841Z,2368.00
2019-04-21T15:20:42.786Z,2364.00
2019-04-21T15:22:34.802Z,2360.00
2019-04-21T15:23:36.119Z,2352.00
2019-04-21T15:25:28.002Z,2336.00
2019-04-21T15:26:28.442Z,2332.00
2019-04-21T15:28:22.007Z,2324.00
2019-04-21T15:29:20.947Z,2316.00
2019-04-21T15:31:21.848Z,2304.00
2019-04-21T15:32:14.892Z,2300.00
2019-04-21T15:34:07.423Z,2292.00
2019-04-21T15:35:07.076Z,2292.00
2019-04-21T15:37:00.076Z,2292.00
2019-04-21T15:38:00.138Z,2288.00
2019-04-21T15:39:53.161Z,2284.00
2019-04-21T15:40:57.071Z,2284.00
2019-04-21T15:42:46.542Z,2276.00
2019-04-21T15:43:46.751Z,2268.00
2019-04-21T15:45:39.289Z,2260.00
2019-04-21T15:46:39.891Z,2256.00
2019-04-21T15:48:33.079Z,2252.00
2019-04-21T15:49:42.134Z,2252.00
2019-04-21T15:51:25.969Z,2256.00
2019-04-21T15:52:25.522Z,2248.00
2019-04-21T15:54:18.560Z,2244.00
2019-04-21T15:55:18.887Z,2236.00
2019-04-21T15:57:13.952Z,2228.00
2019-04-21T15:58:12.326Z,2224.00
2019-04-21T16:00:04.712Z,2212.00
2019-04-21T16:01:04.849Z,2200.00
2019-04-21T16:02:58.373Z,2196.00
2019-04-21T16:04:00.423Z,2192.00
2019-04-21T16:05:50.856Z,2192.00
2019-04-21T16:06:50.769Z,2188.00
2019-04-21T16:08:47.624Z,2180.00
2019-04-21T16:09:44.003Z,2180.00
2019-04-21T16:11:37.908Z,2180.00
2019-04-21T16:12:37.905Z,2176.00
2019-04-21T16:14:29.914Z,2172.00
2019-04-21T16:15:30.351Z,2172.00
2019-04-21T16:17:23.525Z,2168.00
2019-04-21T16:18:24.396Z,2172.00
2019-04-21T16:20:17.536Z,2168.00
2019-04-21T16:21:16.073Z,2168.00
2019-04-21T16:23:10.589Z,2160.00
2019-04-21T16:24:09.141Z,2152.00
2019-04-21T16:26:02.616Z,2144.00
2019-04-21T16:27:05.288Z,2136.00
2019-04-21T16:28:55.735Z,2120.00
2019-04-21T16:29:55.880Z,2116.00
2019-04-21T16:31:49.126Z,2100.00
2019-04-21T16:32:49.890Z,2096.00
2019-04-21T16:34:49.785Z,2084.00
2019-04-21T16:35:42.019Z,2076.00
2019-04-21T16:37:35.424Z,2060.00
2019-04-21T16:38:35.482Z,2052.00
2019-04-21T16:40:40.785Z,2036.00
2019-04-21T16:41:28.668Z,2032.00
2019-04-21T16:43:21.068Z,2020.00
2019-04-21T16:44:21.105Z,2016.00
2019-04-21T16:46:14.104Z,2008.00
2019-04-21T16:47:14.167Z,2004.00
2019-04-21T16:49:07.511Z,1992.00
2019-04-21T16:50:07.793Z,1984.00
2019-04-21T16:52:00.292Z,1968.00
2019-04-21T16:53:01.691Z,1960.00
2019-04-21T16:54:53.800Z,1944.00
2019-04-21T16:55:53.377Z,1936.00
2019-04-21T16:57:58.398Z,1916.00
2019-04-21T16:58:46.434Z,1912.00
2019-04-21T17:00:44.844Z,1892.00
2019-04-21T17:01:40.688Z,1884.00
2019-04-21T17:03:32.742Z,1868.00
2019-04-21T17:04:33.737Z,1856.00
2019-04-21T17:06:26.917Z,1836.00
2019-04-21T17:07:26.275Z,1832.00
2019-04-21T17:09:18.843Z,1808.00
2019-04-21T17:10:18.697Z,1796.00
2019-04-21T17:12:14.244Z,1780.00
2019-04-21T17:13:11.764Z,1764.00
2019-04-21T17:15:21.414Z,1740.00
2019-04-21T17:16:29.880Z,1724.00
2019-04-21T17:18:17.933Z,1700.00
2019-04-21T17:19:08.786Z,1688.00
2019-04-21T17:20:56.186Z,1656.00
2019-04-21T17:21:52.112Z,1644.00
2019-04-21T17:23:44.263Z,1628.00
2019-04-21T17:24:44.396Z,1620.00
2019-04-21T17:26:39.400Z,1596.00
2019-04-21T17:27:37.063Z,1580.00
2019-04-21T17:29:30.479Z,1556.00
2019-04-21T17:30:30.594Z,1540.00
2019-04-21T17:32:25.053Z,1512.00
2019-04-21T17:33:26.893Z,1496.00
2019-04-21T17:35:16.685Z,1464.00
2019-04-21T17:36:16.812Z,1444.00
2019-04-21T17:38:09.959Z,1412.00
2019-04-21T17:39:10.967Z,1392.00
2019-04-21T17:41:14.170Z,1356.00
2019-04-21T17:42:14.236Z,1340.00
2019-04-21T17:43:56.201Z,1304.00
2019-04-21T17:44:55.439Z,1284.00
2019-04-21T17:46:54.487Z,1244.00
2019-04-21T17:47:54.427Z,1224.00
2019-04-21T17:49:41.521Z,1188.00
2019-04-21T17:50:41.552Z,1168.00
2019-04-21T17:52:38.847Z,1128.00
2019-04-21T17:53:41.415Z,1108.00
2019-04-21T17:55:31.290Z,1068.00
2019-04-21T17:56:55.107Z,1044.00
2019-04-21T17:58:34.139Z,1000.00
2019-04-21T17:59:54.944Z,976.00
2019-04-21T18:01:40.836Z,936.00
2019-04-21T18:02:38.586Z,908.00
2019-04-21T18:04:24.367Z,864.00
2019-04-21T18:05:29.063Z,836.00
2019-04-21T18:07:15.204Z,788.00
2019-04-21T18:08:21.473Z,764.00
2019-04-21T18:10:08.734Z,724.00
2019-04-21T18:11:03.436Z,700.00
2019-04-21T18:12:57.253Z,652.00
2019-04-21T18:13:47.234Z,628.00
2019-04-21T18:15:53.443Z,584.00
2019-04-21T18:16:42.777Z,560.00
2019-04-21T18:18:32.903Z,516.00
2019-04-21T18:19:36.362Z,488.00
2019-04-21T18:21:25.144Z,448.00
2019-04-21T18:22:34.715Z,420.00
2019-04-21T18:24:22.583Z,380.00
2019-04-21T18:25:30.740Z,356.00
2019-04-21T18:27:11.480Z,320.00
2019-04-21T18:28:12.460Z,300.00
2019-04-21T18:30:04.480Z,260.00
2019-04-21T18:31:04.712Z,244.00
2019-04-21T18:32:59.974Z,212.00
2019-04-21T18:34:04.417Z,196.00
2019-04-21T18:35:55.090Z,168.00
2019-04-21T18:36:54.190Z,152.00
2019-04-21T18:39:06.892Z,128.00
2019-04-21T18:39:55.879Z,116.00
2019-04-21T18:41:42.760Z,96.00
2019-04-21T18:43:05.643Z,84.00
2019-04-21T18:45:06.367Z,72.00
2019-04-21T18:47:40.478Z,48.00
2019-04-21T18:48:34.452Z,44.00
2019-04-21T18:50:18.559Z,32.00
2019-04-21T18:51:20.906Z,28.00
2019-04-21T18:53:24.499Z,24.00
2019-04-21T18:54:33.671Z,20.00